createdAt,value
2019-03-17T00:00:42.786Z,1.72
2019-03-17T00:03:11.688Z,2.00
2019-03-17T00:05:40.798Z,1.60
2019-03-17T00:08:09.985Z,1.55
2019-03-17T00:10:39.058Z,1.80
2019-03-17T00:13:08.070Z,1.70
2019-03-17T00:15:37.081Z,1.80
2019-03-17T00:18:06.104Z,1.57
2019-03-17T00:20:35.100Z,1.77
2019-03-17T00:23:04.158Z,1.75
2019-03-17T00:25:33.126Z,1.70
2019-03-17T00:28:02.290Z,1.62
2019-03-17T00:30:31.176Z,1.95
2019-03-17T00:33:00.109Z,1.90
2019-03-17T00:35:29.077Z,1.77
2019-03-17T00:37:58.256Z,1.70
2019-03-17T00:40:27.167Z,1.40
2019-03-17T00:42:56.293Z,1.70
2019-03-17T00:45:25.241Z,1.32
2019-03-17T00:47:54.319Z,1.70
2019-03-17T00:50:23.264Z,1.62
2019-03-17T00:52:52.328Z,1.52
2019-03-17T00:55:21.210Z,1.62
2019-03-17T00:57:49.995Z,1.77
2019-03-17T01:00:18.978Z,1.60
2019-03-17T01:02:47.782Z,1.67
2019-03-17T01:05:16.793Z,1.50
2019-03-17T01:07:45.891Z,1.52
2019-03-17T01:10:35.534Z,1.50
2019-03-17T01:13:04.439Z,1.52
2019-03-17T01:15:33.455Z,1.60
2019-03-17T01:18:02.494Z,1.40
2019-03-17T01:20:31.562Z,1.62
2019-03-17T01:23:00.586Z,2.25
2019-03-17T01:25:29.512Z,1.50
2019-03-17T01:27:58.503Z,1.52
2019-03-17T01:30:28.884Z,1.50
2019-03-17T01:35:25.974Z,1.52
2019-03-17T01:37:54.790Z,1.60
2019-03-17T01:40:23.605Z,1.50
2019-03-17T01:42:52.565Z,1.75
2019-03-17T01:45:21.506Z,1.50
2019-03-17T01:47:50.341Z,1.90
2019-03-17T01:50:19.532Z,1.60
2019-03-17T01:52:48.338Z,1.80
2019-03-17T01:55:17.340Z,1.90
2019-03-17T01:57:46.312Z,1.50
2019-03-17T02:00:15.159Z,1.50
2019-03-17T02:02:44.074Z,1.50
2019-03-17T02:05:21.834Z,1.40
2019-03-17T02:07:43.719Z,1.67
2019-03-17T02:10:12.719Z,2.10
2019-03-17T02:12:41.721Z,2.00
2019-03-17T02:15:10.734Z,1.70
2019-03-17T02:17:58.773Z,1.60
2019-03-17T02:20:27.779Z,1.70
2019-03-17T02:22:56.860Z,1.60
2019-03-17T02:25:25.721Z,1.67
2019-03-17T02:27:54.519Z,1.90
2019-03-17T02:30:23.419Z,1.70
2019-03-17T02:32:52.389Z,1.40
2019-03-17T02:35:37.251Z,2.00
2019-03-17T02:37:51.945Z,1.42
2019-03-17T02:40:20.851Z,1.77
2019-03-17T02:42:49.840Z,1.50
2019-03-17T02:45:18.861Z,1.98
2019-03-17T02:47:47.967Z,1.70
2019-03-17T02:50:35.925Z,1.40
2019-03-17T02:53:04.928Z,1.57
2019-03-17T02:55:33.928Z,1.62
2019-03-17T02:58:02.882Z,1.45
2019-03-17T03:00:32.055Z,1.55
2019-03-17T03:03:01.119Z,1.35
2019-03-17T03:05:30.055Z,1.62
2019-03-17T03:08:00.518Z,1.65
2019-03-17T03:10:31.968Z,1.40
2019-03-17T03:13:00.536Z,1.70
2019-03-17T03:15:30.144Z,1.50
2019-03-17T03:17:59.065Z,1.30
2019-03-17T03:20:27.913Z,1.52
2019-03-17T03:22:56.837Z,1.50
2019-03-17T03:25:25.841Z,1.60
2019-03-17T03:27:54.875Z,1.52
2019-03-17T03:30:24.141Z,1.50
2019-03-17T03:32:53.221Z,1.60
2019-03-17T03:35:22.249Z,1.50
2019-03-17T03:37:51.130Z,1.80
2019-03-17T03:40:19.935Z,1.77
2019-03-17T03:42:48.951Z,1.40
2019-03-17T03:45:17.829Z,1.42
2019-03-17T03:47:46.864Z,1.60
2019-03-17T03:50:16.072Z,1.20
2019-03-17T03:52:44.898Z,1.55
2019-03-17T03:55:14.004Z,1.40
2019-03-17T03:57:42.769Z,1.50
2019-03-17T04:00:11.823Z,1.80
2019-03-17T04:02:40.716Z,1.32
2019-03-17T04:05:09.631Z,1.62
2019-03-17T04:07:38.445Z,2.05
2019-03-17T04:10:07.519Z,1.50
2019-03-17T04:12:36.549Z,1.60
2019-03-17T04:15:05.698Z,1.40
2019-03-17T04:17:34.518Z,1.70
2019-03-17T04:20:03.533Z,1.60
2019-03-17T04:22:32.493Z,1.70
2019-03-17T04:25:01.537Z,1.22
2019-03-17T04:27:30.511Z,1.40
2019-03-17T04:29:59.498Z,1.60
2019-03-17T04:35:16.234Z,1.50
2019-03-17T04:37:45.359Z,1.45
2019-03-17T04:40:14.583Z,1.60
2019-03-17T04:42:43.503Z,1.90
2019-03-17T04:45:12.298Z,1.92
2019-03-17T04:47:41.395Z,2.02
2019-03-17T04:50:29.651Z,1.65
2019-03-17T04:52:58.657Z,1.50
2019-03-17T04:55:27.679Z,1.50
2019-03-17T04:57:56.660Z,1.65
2019-03-17T05:00:25.664Z,1.67
2019-03-17T05:02:54.740Z,1.62
2019-03-17T05:05:23.735Z,1.57
2019-03-17T05:07:52.728Z,2.00
2019-03-17T05:10:22.858Z,1.57
2019-03-17T05:15:20.063Z,1.57
2019-03-17T05:17:48.845Z,1.90
2019-03-17T05:20:17.812Z,1.60
2019-03-17T05:22:46.893Z,1.70
2019-03-17T05:25:15.851Z,1.50
2019-03-17T05:27:44.868Z,1.60
2019-03-17T05:30:13.835Z,1.50
2019-03-17T05:32:42.855Z,1.60
2019-03-17T05:35:11.934Z,1.50
2019-03-17T05:37:40.813Z,1.50
2019-03-17T05:40:10.296Z,1.20
2019-03-17T05:42:40.780Z,1.70
2019-03-17T05:45:10.171Z,1.32
2019-03-17T05:47:39.010Z,1.37
2019-03-17T05:50:27.071Z,1.50
2019-03-17T05:52:56.030Z,1.98
2019-03-17T05:55:24.981Z,1.75
2019-03-17T06:00:42.040Z,1.65
2019-03-17T06:03:30.072Z,1.77
2019-03-17T06:05:59.169Z,1.90
2019-03-17T06:08:28.317Z,1.82
2019-03-17T06:10:57.208Z,1.90
2019-03-17T06:13:26.121Z,2.20
2019-03-17T06:16:14.174Z,1.50
2019-03-17T06:18:43.060Z,1.67
2019-03-17T06:21:12.218Z,1.70
2019-03-17T06:23:41.166Z,1.60
2019-03-17T06:26:10.203Z,1.70
2019-03-17T06:28:58.238Z,1.50
2019-03-17T06:31:27.195Z,1.45
2019-03-17T06:33:56.261Z,1.52
2019-03-17T06:36:25.302Z,1.87
2019-03-17T06:38:54.332Z,1.67
2019-03-17T06:41:23.326Z,1.60
2019-03-17T06:43:52.269Z,1.80
2019-03-17T06:46:21.355Z,1.70
2019-03-17T06:48:50.358Z,1.60
2019-03-17T06:51:19.327Z,1.67
2019-03-17T06:53:56.189Z,1.57
2019-03-17T06:56:19.130Z,1.35
2019-03-17T06:58:48.140Z,1.85
2019-03-17T07:01:17.153Z,1.47
2019-03-17T07:03:46.146Z,1.75
2019-03-17T07:06:15.254Z,1.57
2019-03-17T07:08:44.110Z,1.87
2019-03-17T07:11:13.312Z,1.52
2019-03-17T07:13:42.527Z,1.95
2019-03-17T07:16:11.379Z,1.67
2019-03-17T07:18:59.279Z,1.60
2019-03-17T07:21:28.314Z,1.52
2019-03-17T07:23:57.209Z,1.45
2019-03-17T07:26:26.106Z,1.60
2019-03-17T07:28:55.014Z,1.50
2019-03-17T07:31:24.036Z,1.70
2019-03-17T07:33:52.960Z,1.55
2019-03-17T07:36:21.984Z,1.20
2019-03-17T07:38:51.116Z,1.80
2019-03-17T07:41:20.127Z,1.60
2019-03-17T07:43:49.179Z,1.30
2019-03-17T07:46:18.160Z,1.40
2019-03-17T07:48:47.117Z,1.20
2019-03-17T07:51:16.127Z,1.50
2019-03-17T07:53:45.165Z,1.57
2019-03-17T07:56:14.194Z,1.83
2019-03-17T07:58:43.161Z,1.60
2019-03-17T08:01:12.257Z,1.60
2019-03-17T08:03:49.085Z,1.85
2019-03-17T08:06:18.116Z,1.60
2019-03-17T08:08:47.261Z,1.60
2019-03-17T08:11:16.241Z,1.55
2019-03-17T08:13:45.176Z,1.30
2019-03-17T08:16:14.183Z,1.47
2019-03-17T08:18:43.314Z,1.40
2019-03-17T08:21:12.345Z,1.62
2019-03-17T08:23:41.522Z,1.77
2019-03-17T08:26:10.285Z,1.40
2019-03-17T08:28:39.242Z,1.60
2019-03-17T08:31:08.270Z,1.40
2019-03-17T08:33:37.143Z,1.60
2019-03-17T08:36:06.066Z,1.30
2019-03-17T08:38:34.994Z,1.50
2019-03-17T08:41:03.874Z,1.70
2019-03-17T08:43:32.945Z,1.32
2019-03-17T08:46:02.008Z,1.30
2019-03-17T08:48:31.114Z,1.67
2019-03-17T08:51:00.022Z,1.60
2019-03-17T08:53:29.041Z,1.25
2019-03-17T08:55:58.028Z,1.92
2019-03-17T08:58:27.104Z,1.72
2019-03-17T09:00:56.048Z,1.45
2019-03-17T09:03:25.090Z,1.30
2019-03-17T09:05:54.125Z,1.65
2019-03-17T09:08:34.408Z,1.50
2019-03-17T09:10:53.699Z,1.55
2019-03-17T09:13:22.547Z,1.30
2019-03-17T09:15:51.464Z,1.27
2019-03-17T09:18:20.443Z,1.12
2019-03-17T09:20:49.274Z,1.10
2019-03-17T09:23:18.141Z,1.07
2019-03-17T09:25:47.115Z,1.20
2019-03-17T09:28:16.261Z,1.45
2019-03-17T09:30:45.228Z,1.22
2019-03-17T09:33:14.157Z,1.30
2019-03-17T09:35:42.948Z,1.47
2019-03-17T09:38:11.989Z,1.20
2019-03-17T09:40:41.138Z,1.30
2019-03-17T09:43:10.129Z,1.25
2019-03-17T09:45:39.015Z,1.00
2019-03-17T09:48:08.353Z,1.12
2019-03-17T09:50:37.387Z,1.10
2019-03-17T09:53:06.394Z,1.77
2019-03-17T09:55:35.436Z,2.52
2019-03-17T09:58:04.413Z,2.10
2019-03-17T10:00:33.437Z,2.17
2019-03-17T10:03:02.466Z,2.02
2019-03-17T10:05:31.426Z,2.00
2019-03-17T10:08:00.585Z,1.82
2019-03-17T10:10:29.926Z,1.67
2019-03-17T10:12:58.974Z,1.50
2019-03-17T10:15:27.951Z,1.60
2019-03-17T10:17:56.988Z,1.42
2019-03-17T10:20:25.865Z,1.67
2019-03-17T10:22:54.974Z,1.67
2019-03-17T10:25:24.101Z,1.52
2019-03-17T10:27:52.945Z,1.30
2019-03-17T10:30:22.002Z,1.70
2019-03-17T10:33:11.638Z,1.42
2019-03-17T10:35:40.497Z,1.40
2019-03-17T10:38:09.289Z,1.22
2019-03-17T10:40:38.310Z,1.50
2019-03-17T10:43:07.327Z,1.30
2019-03-17T10:45:36.210Z,1.37
2019-03-17T10:48:05.063Z,1.72
2019-03-17T10:50:33.926Z,1.25
2019-03-17T10:53:02.769Z,1.22
2019-03-17T10:55:31.703Z,1.40
2019-03-17T10:58:00.690Z,1.20
2019-03-17T11:00:29.540Z,1.60
2019-03-17T11:02:58.799Z,1.20
2019-03-17T11:05:27.786Z,1.17
2019-03-17T11:07:56.828Z,1.07
2019-03-17T11:10:25.816Z,1.20
2019-03-17T11:12:54.823Z,1.15
2019-03-17T11:15:23.843Z,1.30
2019-03-17T11:17:52.867Z,1.17
2019-03-17T11:20:21.905Z,1.10
2019-03-17T11:22:50.853Z,1.20
2019-03-17T11:25:19.885Z,1.10
2019-03-17T11:27:48.884Z,1.30
2019-03-17T11:30:17.896Z,1.20
2019-03-17T11:32:46.862Z,0.95
2019-03-17T11:35:15.903Z,1.22
2019-03-17T11:37:44.975Z,1.02
2019-03-17T11:40:14.093Z,1.10
2019-03-17T11:42:44.669Z,0.95
2019-03-17T11:45:13.906Z,0.90
2019-03-17T11:47:42.977Z,1.10
2019-03-17T11:50:12.802Z,1.20
2019-03-17T11:52:41.711Z,1.17
2019-03-17T11:55:10.990Z,0.90
2019-03-17T11:57:39.979Z,1.00
2019-03-17T12:00:10.986Z,1.10
2019-03-17T12:02:39.789Z,1.00
2019-03-17T12:05:09.229Z,1.05
2019-03-17T12:07:38.233Z,1.10
2019-03-17T12:10:08.472Z,1.00
2019-03-17T12:12:37.613Z,1.10
2019-03-17T12:15:08.555Z,0.90
2019-03-17T12:17:37.573Z,0.90
2019-03-17T12:20:07.245Z,0.90
2019-03-17T12:22:36.186Z,0.98
2019-03-17T12:25:05.242Z,1.35
2019-03-17T12:27:34.229Z,0.90
2019-03-17T12:30:03.373Z,0.90
2019-03-17T12:32:32.390Z,1.00
2019-03-17T12:35:01.291Z,1.10
2019-03-17T12:37:30.295Z,1.00
2019-03-17T12:40:02.895Z,0.95
2019-03-17T12:42:30.020Z,1.00
2019-03-17T12:44:59.074Z,1.00
2019-03-17T12:47:28.049Z,0.90
2019-03-17T12:49:56.899Z,0.95
2019-03-17T12:52:25.792Z,0.80
2019-03-17T12:54:54.913Z,0.95
2019-03-17T12:57:23.819Z,0.70
2019-03-17T12:59:52.838Z,0.70
2019-03-17T13:02:21.791Z,1.05
2019-03-17T13:04:50.818Z,0.90
2019-03-17T13:07:19.851Z,1.05
2019-03-17T13:09:48.955Z,0.82
2019-03-17T13:12:17.944Z,1.00
2019-03-17T13:15:07.503Z,0.80
2019-03-17T13:17:36.426Z,1.00
2019-03-17T13:20:06.443Z,0.90
2019-03-17T13:22:35.681Z,0.70
2019-03-17T13:25:04.620Z,0.70
2019-03-17T13:27:33.499Z,0.85
2019-03-17T13:30:02.375Z,0.90
2019-03-17T13:32:31.304Z,0.90
2019-03-17T13:35:00.395Z,0.82
2019-03-17T13:37:48.412Z,0.90
2019-03-17T13:40:28.416Z,1.00
2019-03-17T13:42:48.137Z,0.80
2019-03-17T13:45:17.098Z,1.00
2019-03-17T13:47:46.108Z,0.75
2019-03-17T13:50:15.459Z,0.90
2019-03-17T13:52:44.535Z,0.80
2019-03-17T13:55:13.510Z,0.90
2019-03-17T13:57:43.217Z,1.00
2019-03-17T14:00:14.238Z,1.00
2019-03-17T14:02:43.192Z,0.75
2019-03-17T14:05:12.022Z,1.25
2019-03-17T14:07:40.907Z,0.90
2019-03-17T14:10:14.357Z,0.85
2019-03-17T14:12:43.846Z,0.90
2019-03-17T14:15:13.750Z,0.95
2019-03-17T14:17:42.552Z,0.80
2019-03-17T14:20:13.634Z,0.80
2019-03-17T14:22:42.846Z,0.90
2019-03-17T14:25:14.931Z,0.90
2019-03-17T14:27:43.940Z,1.00
2019-03-17T14:30:14.318Z,1.10
2019-03-17T14:35:11.290Z,0.90
2019-03-17T14:37:40.252Z,0.72
2019-03-17T14:40:10.327Z,1.07
2019-03-17T14:42:39.468Z,1.00
2019-03-17T14:45:09.141Z,0.90
2019-03-17T14:47:38.114Z,1.00
2019-03-17T14:50:08.959Z,1.00
2019-03-17T14:52:37.869Z,1.00
2019-03-17T14:55:07.064Z,1.17
2019-03-17T14:57:36.173Z,0.90
2019-03-17T15:00:06.559Z,0.88
2019-03-17T15:05:03.982Z,0.72
2019-03-17T15:07:33.289Z,0.80
2019-03-17T15:10:02.193Z,0.93
2019-03-17T15:12:31.165Z,0.90
2019-03-17T15:15:00.176Z,0.78
2019-03-17T15:17:29.540Z,1.07
2019-03-17T15:19:58.662Z,0.80
2019-03-17T15:22:30.381Z,0.50
2019-03-17T15:24:58.260Z,0.70
2019-03-17T15:27:27.196Z,0.90
2019-03-17T15:29:56.215Z,0.90
2019-03-17T15:32:25.340Z,0.70
2019-03-17T15:34:54.259Z,1.00
2019-03-17T15:37:23.203Z,1.05
2019-03-17T15:39:52.076Z,0.80
2019-03-17T15:42:40.244Z,0.85
2019-03-17T15:45:11.347Z,0.90
2019-03-17T15:47:40.420Z,1.07
2019-03-17T15:50:10.616Z,0.78
2019-03-17T15:52:39.489Z,0.90
2019-03-17T15:55:09.405Z,0.80
2019-03-17T15:57:38.473Z,0.80
2019-03-17T16:00:10.404Z,0.85
2019-03-17T16:02:39.529Z,0.70
2019-03-17T16:05:08.481Z,0.90
2019-03-17T16:07:42.074Z,0.78
2019-03-17T16:10:28.171Z,0.90
2019-03-17T16:12:57.169Z,0.90
2019-03-17T16:15:26.175Z,0.90
2019-03-17T16:17:54.951Z,0.70
2019-03-17T16:20:24.079Z,1.00
2019-03-17T16:22:53.061Z,0.60
2019-03-17T16:25:21.953Z,0.95
2019-03-17T16:27:50.818Z,0.68
2019-03-17T16:30:21.480Z,0.85
2019-03-17T16:32:50.280Z,0.88
2019-03-17T16:35:19.381Z,0.70
2019-03-17T16:37:48.598Z,1.00
2019-03-17T16:40:39.675Z,0.80
2019-03-17T16:43:08.635Z,0.70
2019-03-17T16:45:37.576Z,0.70
2019-03-17T16:48:06.487Z,0.90
2019-03-17T16:50:35.397Z,0.80
2019-03-17T16:53:04.634Z,0.80
2019-03-17T16:55:34.971Z,0.70
2019-03-17T17:00:52.815Z,1.00
2019-03-17T17:03:21.842Z,1.00
2019-03-17T17:05:50.717Z,1.10
2019-03-17T17:08:19.511Z,0.90
2019-03-17T17:10:50.520Z,1.10
2019-03-17T17:13:39.907Z,0.90
2019-03-17T17:16:08.842Z,1.00
2019-03-17T17:18:37.854Z,0.80
2019-03-17T17:21:06.903Z,0.90
2019-03-17T17:23:36.010Z,0.90
2019-03-17T17:26:05.018Z,0.98
2019-03-17T17:28:33.987Z,0.90
2019-03-17T17:31:02.939Z,0.85
2019-03-17T17:33:52.630Z,1.00
2019-03-17T17:36:21.735Z,1.02
2019-03-17T17:38:50.994Z,0.98
2019-03-17T17:41:20.019Z,1.00
2019-03-17T17:43:48.965Z,0.90
2019-03-17T17:46:18.049Z,1.20
2019-03-17T17:48:46.908Z,1.17
2019-03-17T17:51:15.706Z,1.07
2019-03-17T17:53:44.872Z,1.25
2019-03-17T17:56:13.740Z,0.90
2019-03-17T17:58:42.755Z,0.88
2019-03-17T18:01:11.652Z,0.82
2019-03-17T18:03:51.135Z,1.00
2019-03-17T18:06:11.214Z,0.82
2019-03-17T18:08:40.045Z,0.93
2019-03-17T18:11:09.199Z,0.90
2019-03-17T18:13:38.212Z,1.00
2019-03-17T18:16:07.172Z,0.90
2019-03-17T18:18:36.173Z,1.05
2019-03-17T18:23:40.297Z,0.70
2019-03-17T18:26:09.294Z,0.90
2019-03-17T18:28:38.239Z,1.22
2019-03-17T18:31:07.273Z,0.90
2019-03-17T18:33:36.278Z,0.93
2019-03-17T18:36:05.372Z,0.90
2019-03-17T18:38:34.373Z,0.90
2019-03-17T18:41:03.506Z,1.00
2019-03-17T18:43:32.339Z,0.90
2019-03-17T18:46:01.218Z,0.88
2019-03-17T18:48:30.007Z,0.80
2019-03-17T18:50:59.060Z,0.85
2019-03-17T18:53:28.037Z,1.00
2019-03-17T18:55:57.045Z,0.93
2019-03-17T18:58:25.929Z,1.07
2019-03-17T19:00:55.063Z,0.80
2019-03-17T19:03:24.087Z,0.78
2019-03-17T19:05:53.193Z,0.72
2019-03-17T19:08:22.397Z,0.88
2019-03-17T19:10:51.434Z,1.02
2019-03-17T19:13:20.464Z,1.00
2019-03-17T19:15:49.526Z,0.98
2019-03-17T19:18:18.509Z,0.90
2019-03-17T19:20:47.500Z,0.88
2019-03-17T19:23:16.490Z,1.00
2019-03-17T19:25:45.494Z,1.20
2019-03-17T19:28:14.623Z,1.10
2019-03-17T19:30:43.454Z,0.90
2019-03-17T19:33:12.615Z,1.00
2019-03-17T19:35:41.619Z,0.95
2019-03-17T19:38:10.500Z,1.00
2019-03-17T19:40:39.293Z,1.30
2019-03-17T19:43:08.391Z,1.00
2019-03-17T19:45:37.310Z,1.00
2019-03-17T19:48:06.332Z,0.90
2019-03-17T19:50:35.357Z,1.30
2019-03-17T19:53:04.653Z,1.10
2019-03-17T19:55:33.691Z,1.35
2019-03-17T19:58:02.686Z,1.20
2019-03-17T20:00:31.751Z,1.47
2019-03-17T20:03:00.741Z,1.05
2019-03-17T20:05:29.778Z,1.30
2019-03-17T20:07:58.649Z,1.07
2019-03-17T20:10:27.625Z,1.22
2019-03-17T20:12:56.762Z,1.10
2019-03-17T20:15:44.793Z,1.20
2019-03-17T20:18:13.741Z,1.10
2019-03-17T20:20:42.588Z,1.07
2019-03-17T20:23:11.778Z,1.20
2019-03-17T20:25:40.886Z,1.27
2019-03-17T20:28:09.992Z,1.40
2019-03-17T20:30:39.139Z,1.57
2019-03-17T20:33:07.979Z,1.40
2019-03-17T20:35:36.910Z,1.40
2019-03-17T20:38:05.968Z,1.60
2019-03-17T20:40:34.908Z,1.70
2019-03-17T20:43:03.860Z,1.52
2019-03-17T20:45:32.984Z,1.60
2019-03-17T20:48:02.110Z,1.72
2019-03-17T20:50:31.084Z,1.60
2019-03-17T20:53:00.077Z,1.50
2019-03-17T20:55:28.955Z,1.30
2019-03-17T20:57:57.840Z,1.65
2019-03-17T21:00:26.819Z,1.32
2019-03-17T21:02:55.752Z,1.50
2019-03-17T21:05:24.764Z,1.40
2019-03-17T21:07:53.880Z,1.40
2019-03-17T21:10:23.066Z,1.60
2019-03-17T21:12:52.207Z,1.47
2019-03-17T21:15:21.273Z,1.77
2019-03-17T21:17:50.250Z,1.42
2019-03-17T21:20:19.201Z,1.30
2019-03-17T21:22:48.262Z,1.47
2019-03-17T21:25:17.254Z,1.57
2019-03-17T21:27:46.090Z,1.70
2019-03-17T21:30:17.280Z,1.52
2019-03-17T21:32:46.266Z,1.42
2019-03-17T21:35:15.236Z,1.60
2019-03-17T21:37:44.243Z,1.60
2019-03-17T21:40:32.312Z,1.37
2019-03-17T21:43:01.303Z,1.50
2019-03-17T21:45:30.324Z,1.70
2019-03-17T21:47:59.341Z,1.65
2019-03-17T21:50:28.349Z,1.42
2019-03-17T21:52:57.583Z,1.87
2019-03-17T21:55:26.451Z,1.70
2019-03-17T21:57:55.370Z,1.55
2019-03-17T22:00:24.372Z,1.72
2019-03-17T22:02:54.985Z,1.80
2019-03-17T22:05:23.915Z,1.60
2019-03-17T22:08:13.460Z,1.60
2019-03-17T22:10:42.558Z,1.70
2019-03-17T22:13:11.527Z,1.85
2019-03-17T22:15:40.463Z,2.00
2019-03-17T22:18:09.487Z,2.00
2019-03-17T22:20:38.554Z,2.00
2019-03-17T22:25:55.431Z,1.90
2019-03-17T22:28:24.230Z,1.98
2019-03-17T22:30:53.317Z,1.90
2019-03-17T22:33:22.617Z,2.20
2019-03-17T22:35:51.584Z,2.17
2019-03-17T22:38:20.578Z,1.87
2019-03-17T22:40:49.621Z,2.00
2019-03-17T22:43:37.745Z,1.80
2019-03-17T22:46:06.731Z,1.90
2019-03-17T22:48:35.579Z,1.55
2019-03-17T22:51:04.365Z,1.70
2019-03-17T22:53:33.346Z,1.80
2019-03-17T22:56:02.240Z,1.70
2019-03-17T22:58:31.267Z,2.00
2019-03-17T23:01:00.252Z,1.98
2019-03-17T23:03:29.268Z,1.70
2019-03-17T23:05:58.166Z,1.98
2019-03-17T23:08:27.011Z,1.47
2019-03-17T23:10:55.936Z,1.90
2019-03-17T23:13:24.816Z,1.72
2019-03-17T23:15:53.823Z,1.62
2019-03-17T23:18:22.737Z,1.60
2019-03-17T23:20:51.523Z,1.80
2019-03-17T23:23:20.541Z,1.60
2019-03-17T23:25:49.552Z,1.87
2019-03-17T23:28:18.565Z,2.02
2019-03-17T23:30:47.464Z,2.02
2019-03-17T23:33:16.554Z,1.80
2019-03-17T23:35:45.577Z,2.33
2019-03-17T23:38:14.400Z,1.87
2019-03-17T23:40:43.405Z,2.20
2019-03-17T23:43:12.347Z,2.08
2019-03-17T23:45:41.374Z,2.10
2019-03-17T23:48:31.005Z,2.00
2019-03-17T23:50:59.932Z,2.50
2019-03-17T23:53:28.765Z,2.45
2019-03-17T23:55:57.704Z,2.10
2019-03-17T23:58:26.713Z,2.52
